Time;durP1;ratioP1;P1;durP2;ratioP2;P2;SDS_P1;SDS_P2;PMS_P1;PMS_P2;Temp;Humidity;BMP_temperature;BMP_pressure;BME280_temperature;BME280_humidity;BME280_pressure;Samples;Min_cycle;Max_cycle;Signal;HPM_P1;HPM_P2
2023/06/19 00:01:28;;;;;;;9.20;8.30;;;;;;;14.06;84.57;100471.67;105012;1260;83694;-65
2023/06/19 00:03:56;;;;;;;9.60;8.30;;;;;;;14.02;84.44;100472.93;105015;1260;73881;-66
2023/06/19 00:06:24;;;;;;;9.90;8.50;;;;;;;13.99;84.48;100470.12;105022;1260;69227;-63
2023/06/19 00:08:53;;;;;;;9.20;8.40;;;;;;;13.97;84.91;100469.50;105045;1259;69366;-64
2023/06/19 00:11:21;;;;;;;11.00;9.00;;;;;;;13.96;85.05;100469.23;105045;1259;74793;-65
2023/06/19 00:13:50;;;;;;;11.10;8.50;;;;;;;13.94;85.08;100469.83;105092;1263;83617;-64
2023/06/19 00:16:19;;;;;;;8.50;7.60;;;;;;;13.91;84.79;100467.54;105038;1261;74402;-66
2023/06/19 00:18:48;;;;;;;8.80;7.60;;;;;;;13.85;84.68;100471.01;105036;1260;69196;-66
2023/06/19 00:21:16;;;;;;;9.30;8.30;;;;;;;13.80;84.98;100470.89;105105;1264;69229;-64
2023/06/19 00:23:45;;;;;;;9.40;8.40;;;;;;;13.78;85.07;100470.12;105046;1260;74722;-67
2023/06/19 00:26:14;;;;;;;10.40;8.70;;;;;;;13.75;85.12;100464.83;105051;1259;83524;-63
2023/06/19 00:28:45;;;;;;;10.20;8.50;;;;;;;13.71;85.19;100465.52;105050;1260;72870;-65
2023/06/19 00:31:14;;;;;;;11.50;7.90;;;;;;;13.65;85.07;100466.50;105047;1260;69189;-63
2023/06/19 00:33:45;;;;;;;9.30;8.40;;;;;;;13.59;85.13;100464.70;104904;1265;69250;-63
2023/06/19 00:36:15;;;;;;;9.30;8.00;;;;;;;13.57;85.50;100464.98;105076;1261;75930;-65
2023/06/19 00:38:46;;;;;;;9.30;8.40;;;;;;;13.54;85.38;100467.61;105073;1263;83655;-65
2023/06/19 00:41:16;;;;;;;;;;;;;;;13.51;85.49;100467.23;105068;1259;72750;-65
2023/06/19 00:43:45;;;;;;;10.10;9.10;;;;;;;13.46;85.57;100463.40;105030;1259;69115;-66
2023/06/19 00:46:13;;;;;;;10.80;9.00;;;;;;;13.42;85.71;100465.34;105058;1261;69246;-64
2023/06/19 00:48:42;;;;;;;9.30;8.20;;;;;;;13.40;85.81;100465.80;105013;1263;75829;-65
2023/06/19 00:51:10;;;;;;;10.00;8.50;;;;;;;13.37;85.85;100461.19;105028;1263;82752;-67
2023/06/19 00:53:39;;;;;;;9.50;8.30;;;;;;;13.34;85.82;100458.68;105020;1260;72782;-64
2023/06/19 00:56:07;;;;;;;8.90;8.00;;;;;;;13.32;86.10;100454.06;105008;1260;69260;-65
2023/06/19 00:58:36;;;;;;;10.20;8.90;;;;;;;13.32;86.01;100453.38;105052;1264;69225;-65
2023/06/19 01:01:05;;;;;;;10.10;8.40;;;;;;;13.29;86.08;100455.99;104882;1260;74674;-64
2023/06/19 01:03:37;;;;;;;10.00;9.00;;;;;;;13.28;86.29;100456.88;105011;1260;83306;-63
2023/06/19 01:06:16;;;;;;;10.40;9.30;;;;;;;13.27;86.19;100455.70;104970;1259;72987;-66
2023/06/19 01:09:08;;;;;;;10.50;9.50;;;;;;;13.24;86.34;100459.67;105046;1260;69263;-64
2023/06/19 01:11:44;;;;;;;13.20;8.80;;;;;;;13.20;86.51;100456.38;104917;1265;69101;-66
2023/06/19 01:14:18;;;;;;;9.70;8.70;;;;;;;13.18;86.53;100459.09;104886;1265;75804;-63
2023/06/19 01:16:47;;;;;;;9.80;8.80;;;;;;;13.14;86.52;100458.35;104897;1260;81577;-63
2023/06/19 01:19:19;;;;;;;9.60;8.60;;;;;;;13.13;86.63;100453.86;104847;1264;73984;-65
2023/06/19 01:21:50;;;;;;;9.80;8.80;;;;;;;13.13;86.69;100450.02;105010;1264;69267;-64
2023/06/19 01:24:18;;;;;;;9.60;8.50;;;;;;;13.10;86.65;100457.51;104965;1265;69405;-62
2023/06/19 01:26:47;;;;;;;11.90;8.30;;;;;;;13.07;86.72;100451.35;105045;1260;75826;-64
2023/06/19 01:29:17;;;;;;;9.30;8.30;;;;;;;13.03;86.56;100453.47;105105;1260;83981;-65
2023/06/19 01:31:56;;;;;;;9.40;8.50;;;;;;;12.99;86.79;100452.98;104870;1262;73737;-63
2023/06/19 01:34:26;;;;;;;10.90;9.20;;;;;;;12.97;87.00;100450.43;104843;1268;69686;-64
2023/06/19 01:36:57;;;;;;;;;;;;;;;12.93;86.93;100450.04;104857;1267;69579;-65
2023/06/19 01:39:26;;;;;;;11.50;8.50;;;;;;;12.90;87.04;100448.30;104839;1268;75962;-63
2023/06/19 01:41:55;;;;;;;9.00;7.60;;;;;;;12.88;87.12;100444.18;104862;1266;83701;-65
2023/06/19 01:44:24;;;;;;;10.50;8.40;;;;;;;12.84;86.99;100447.34;104840;1267;73953;-63
2023/06/19 01:46:52;;;;;;;11.30;8.40;;;;;;;12.79;87.17;100448.58;104855;1268;69157;-66
2023/06/19 01:49:21;;;;;;;10.60;8.80;;;;;;;12.79;87.28;100454.77;104858;1262;69150;-64
2023/06/19 01:51:50;;;;;;;10.50;7.90;;;;;;;12.74;87.20;100452.50;104893;1262;75768;-65
2023/06/19 01:54:18;;;;;;;9.00;8.10;;;;;;;12.70;87.32;100453.23;104809;1268;82560;-65
2023/06/19 01:56:49;;;;;;;8.90;7.50;;;;;;;12.66;87.32;100456.34;104882;1263;72958;-64
2023/06/19 01:59:21;;;;;;;19.90;9.90;;;;;;;12.65;87.72;100455.88;104791;1262;69219;-62
2023/06/19 02:01:49;;;;;;;9.40;8.40;;;;;;;12.67;87.76;100449.68;104844;1268;69317;-65
2023/06/19 02:04:18;;;;;;;10.40;9.30;;;;;;;12.68;87.95;100453.85;104927;1263;74964;-63
2023/06/19 02:06:46;;;;;;;9.00;8.10;;;;;;;12.68;87.96;100451.35;104792;1262;83673;-65
2023/06/19 02:09:15;;;;;;;10.30;9.20;;;;;;;12.70;88.04;100452.36;104875;1261;72719;-66
2023/06/19 02:11:44;;;;;;;9.10;8.20;;;;;;;12.70;88.22;100452.34;104788;1263;69115;-65
2023/06/19 02:14:12;;;;;;;11.80;9.80;;;;;;;12.70;88.10;100451.24;104967;1262;69192;-62
2023/06/19 02:16:44;;;;;;;10.50;9.40;;;;;;;12.70;88.25;100450.74;104826;1261;75946;-67
2023/06/19 02:19:12;;;;;;;10.70;9.00;;;;;;;12.70;88.20;100454.46;104823;1265;83635;-62
2023/06/19 02:21:41;;;;;;;9.40;8.40;;;;;;;12.69;88.28;100453.97;104838;1263;72880;-64
2023/06/19 02:24:09;;;;;;;10.60;9.50;;;;;;;12.65;88.20;100450.44;104826;1265;69216;-65
2023/06/19 02:26:39;;;;;;;9.40;8.40;;;;;;;12.61;88.28;100446.45;104903;1264;69114;-65
2023/06/19 02:29:08;;;;;;;9.90;8.90;;;;;;;12.58;88.09;100449.05;104911;1265;75148;-66
2023/06/19 02:31:36;;;;;;;12.30;9.30;;;;;;;12.52;87.79;100444.36;104784;1263;83455;-66
2023/06/19 02:34:06;;;;;;;11.80;8.70;;;;;;;12.48;88.12;100448.20;104889;1265;74055;-64
2023/06/19 02:36:35;;;;;;;11.50;9.60;;;;;;;12.44;87.86;100452.08;104826;1265;69201;-66
2023/06/19 02:39:07;;;;;;;9.50;8.40;;;;;;;12.40;88.27;100448.23;104853;1265;69180;-63
2023/06/19 02:41:35;;;;;;;10.60;9.50;;;;;;;12.38;88.32;100450.58;104850;1262;75764;-63
2023/06/19 02:44:04;;;;;;;10.60;9.40;;;;;;;12.39;88.77;100454.08;104944;1265;83173;-64
2023/06/19 02:46:33;;;;;;;11.10;9.20;;;;;;;12.38;88.64;100454.45;104787;1262;73736;-63
2023/06/19 02:49:02;;;;;;;11.10;9.40;;;;;;;12.38;88.64;100460.06;104892;1261;69186;-63
2023/06/19 02:51:31;;;;;;;11.00;9.60;;;;;;;12.38;89.04;100454.97;104779;1266;69244;-64
2023/06/19 02:53:59;;;;;;;10.80;9.50;;;;;;;12.45;89.49;100455.92;104899;1265;75098;-65
2023/06/19 02:56:31;;;;;;;16.50;9.80;;;;;;;12.41;88.91;100462.39;104886;1263;83327;-66
2023/06/19 02:58:59;;;;;;;11.80;9.20;;;;;;;12.37;88.99;100463.09;104828;1265;72922;-65
2023/06/19 03:01:30;;;;;;;10.60;9.60;;;;;;;12.37;89.01;100471.15;104851;1262;69113;-64
2023/06/19 03:03:58;;;;;;;11.30;9.20;;;;;;;12.38;89.61;100463.56;104909;1262;69214;-63
2023/06/19 03:06:27;;;;;;;9.70;8.70;;;;;;;12.47;90.40;100457.05;104832;1262;75962;-64
2023/06/19 03:08:56;;;;;;;11.80;9.00;;;;;;;12.50;89.98;100458.48;104885;1262;82637;-66
2023/06/19 03:11:25;;;;;;;9.50;8.20;;;;;;;12.49;89.78;100454.15;104898;1260;73839;-67
2023/06/19 03:13:54;;;;;;;9.50;8.50;;;;;;;12.50;90.02;100450.24;104834;1264;69142;-63
2023/06/19 03:16:22;;;;;;;9.90;9.00;;;;;;;12.52;90.13;100446.83;104847;1261;69171;-64
2023/06/19 03:18:51;;;;;;;12.80;9.70;;;;;;;12.54;90.06;100445.02;104896;1263;76139;-65
2023/06/19 03:21:22;;;;;;;10.40;9.20;;;;;;;12.58;90.46;100447.30;104838;1264;83234;-64
2023/06/19 03:23:51;;;;;;;10.90;9.80;;;;;;;12.61;90.45;100442.92;104876;1265;73606;-62
2023/06/19 03:26:22;;;;;;;11.40;9.50;;;;;;;12.65;90.56;100438.72;104893;1265;69714;-65
2023/06/19 03:28:50;;;;;;;11.20;9.80;;;;;;;12.69;90.96;100435.70;104887;1265;69190;-62
2023/06/19 03:31:19;;;;;;;13.10;11.10;;;;;;;12.78;90.98;100435.68;104865;1262;74872;-66
2023/06/19 03:33:47;;;;;;;13.00;10.20;;;;;;;12.86;91.30;100435.51;104802;1263;82761;-66
2023/06/19 03:36:17;;;;;;;11.00;9.40;;;;;;;12.94;91.66;100435.48;104902;1265;73975;-68
2023/06/19 03:38:50;;;;;;;11.40;10.30;;;;;;;13.03;91.87;100436.78;104881;1262;69151;-66
2023/06/19 03:41:21;;;;;;;11.80;10.60;;;;;;;13.13;91.90;100441.57;104851;1265;69688;-65
2023/06/19 03:43:49;;;;;;;14.20;11.10;;;;;;;13.25;92.19;100440.89;104824;1263;75287;-69
2023/06/19 03:46:18;;;;;;;11.80;10.60;;;;;;;13.36;92.38;100446.52;104947;1265;82625;-65
2023/06/19 03:48:47;;;;;;;13.00;11.20;;;;;;;13.47;92.40;100444.42;104896;1265;73964;-67
2023/06/19 03:51:18;;;;;;;13.40;11.20;;;;;;;13.56;92.40;100448.52;104960;1260;69526;-66
2023/06/19 03:53:46;;;;;;;11.60;10.40;;;;;;;13.66;92.44;100448.23;104981;1260;69119;-67
2023/06/19 03:56:17;;;;;;;12.50;11.10;;;;;;;13.75;92.46;100445.32;105017;1260;74787;-69
2023/06/19 03:58:48;;;;;;;12.30;10.50;;;;;;;13.84;92.55;100445.38;105068;1265;85049;-66
2023/06/19 04:01:17;;;;;;;12.30;10.40;;;;;;;13.95;92.58;100446.79;105040;1262;72352;-67
2023/06/19 04:03:45;;;;;;;11.80;10.60;;;;;;;14.03;92.66;100448.30;104963;1260;69144;-68
2023/06/19 04:06:14;;;;;;;14.10;11.00;;;;;;;14.13;92.80;100448.66;105073;1261;69130;-69
2023/06/19 04:08:43;;;;;;;12.30;11.00;;;;;;;14.22;92.85;100453.47;105080;1265;75022;-65
2023/06/19 04:11:13;;;;;;;12.30;11.00;;;;;;;14.32;92.56;100461.08;105093;1263;83420;-65
2023/06/19 04:13:42;;;;;;;15.20;10.80;;;;;;;14.40;92.56;100469.60;105029;1260;73802;-66
2023/06/19 04:16:11;;;;;;;13.70;10.20;;;;;;;14.49;92.42;100467.58;104844;1265;69293;-67
2023/06/19 04:18:39;;;;;;;18.20;11.00;;;;;;;14.56;92.20;100469.16;105038;1264;69193;-67
2023/06/19 04:21:07;;;;;;;16.00;11.40;;;;;;;14.63;92.26;100468.60;104861;1259;76117;-66
2023/06/19 04:23:36;;;;;;;11.80;10.60;;;;;;;14.71;92.08;100469.24;105049;1264;83219;-67
2023/06/19 04:26:05;;;;;;;12.10;10.80;;;;;;;14.77;91.90;100469.11;105018;1260;73742;-65
2023/06/19 04:28:33;;;;;;;12.70;10.70;;;;;;;14.83;91.93;100464.58;104853;1260;69254;-69
2023/06/19 04:31:01;;;;;;;11.40;9.90;;;;;;;14.89;91.96;100463.36;105033;1260;69132;-70
2023/06/19 04:33:30;;;;;;;11.70;10.30;;;;;;;14.97;91.95;100465.79;105063;1260;75937;-65
2023/06/19 04:35:58;;;;;;;11.70;10.10;;;;;;;15.05;91.91;100461.30;105060;1259;83433;-67
2023/06/19 04:38:27;;;;;;;11.30;10.20;;;;;;;15.12;91.82;100461.06;104979;1266;73854;-65
2023/06/19 04:40:57;;;;;;;11.30;10.10;;;;;;;15.20;91.90;100457.98;104979;1259;69280;-67
2023/06/19 04:43:25;;;;;;;11.40;10.30;;;;;;;15.29;92.03;100457.99;105045;1260;69224;-64
2023/06/19 04:45:54;;;;;;;12.80;11.20;;;;;;;15.37;91.96;100459.81;104998;1259;74732;-65
2023/06/19 04:48:24;;;;;;;13.50;11.90;;;;;;;15.46;91.95;100460.25;104963;1264;83380;-67
2023/06/19 04:50:55;;;;;;;12.30;11.00;;;;;;;15.56;92.00;100463.37;104995;1260;73927;-65
2023/06/19 04:53:25;;;;;;;12.10;10.90;;;;;;;15.67;91.89;100467.15;104943;1260;69150;-65
2023/06/19 04:55:55;;;;;;;12.50;11.20;;;;;;;15.78;91.88;100465.14;105054;1268;69194;-62
2023/06/19 04:58:23;;;;;;;15.60;10.80;;;;;;;15.91;91.94;100463.01;104996;1264;76551;-65
2023/06/19 05:00:52;;;;;;;13.30;10.70;;;;;;;16.00;91.66;100463.50;105114;1264;83947;-65
2023/06/19 05:03:21;;;;;;;15.00;10.60;;;;;;;16.08;91.51;100468.33;105086;1265;73692;-62
2023/06/19 05:05:50;;;;;;;11.20;10.10;;;;;;;16.19;91.60;100466.80;104877;1260;69119;-63
2023/06/19 05:08:19;;;;;;;11.80;10.60;;;;;;;16.32;91.54;100465.67;105177;1259;69096;-62
2023/06/19 05:10:47;;;;;;;11.70;10.20;;;;;;;16.42;91.74;100461.33;105095;1265;75393;-62
2023/06/19 05:13:18;;;;;;;15.10;10.90;;;;;;;16.51;91.70;100460.30;105249;1264;83261;-61
2023/06/19 05:15:46;;;;;;;14.00;11.00;;;;;;;16.57;91.62;100462.59;105167;1265;72731;-63
2023/06/19 05:18:15;;;;;;;12.60;11.30;;;;;;;16.62;91.44;100465.79;105111;1265;69216;-63
2023/06/19 05:20:44;;;;;;;12.50;11.20;;;;;;;16.68;91.26;100467.17;105004;1264;69093;-64
2023/06/19 05:23:12;;;;;;;14.00;11.50;;;;;;;16.73;91.02;100472.89;105214;1260;74722;-63
2023/06/19 05:25:42;;;;;;;12.50;11.20;;;;;;;16.79;90.86;100476.26;105090;1260;83612;-64
2023/06/19 05:28:11;;;;;;;;;;;;;;;16.84;90.77;100482.47;105108;1264;72667;-64
2023/06/19 05:30:39;;;;;;;12.80;11.50;;;;;;;16.87;90.08;100486.14;105130;1261;69212;-63
2023/06/19 05:33:09;;;;;;;12.70;11.40;;;;;;;16.92;89.78;100491.13;105219;1264;69676;-63
2023/06/19 05:35:38;;;;;;;14.00;12.60;;;;;;;16.99;89.30;100494.27;105210;1260;75556;-65
2023/06/19 05:38:06;;;;;;;18.70;12.90;;;;;;;17.05;89.06;100497.40;105137;1261;83430;-63
2023/06/19 05:40:35;;;;;;;16.10;13.30;;;;;;;17.16;88.85;100497.95;105019;1266;72702;-62
2023/06/19 05:43:03;;;;;;;17.50;12.80;;;;;;;17.27;88.82;100499.21;105127;1266;69091;-62
2023/06/19 05:45:32;;;;;;;15.80;13.30;;;;;;;17.43;88.63;100501.23;105162;1264;69296;-60
2023/06/19 05:48:00;;;;;;;13.40;12.00;;;;;;;17.57;88.31;100505.05;104952;1265;76018;-63
2023/06/19 05:50:30;;;;;;;12.50;11.10;;;;;;;17.70;87.78;100505.44;105117;1264;83778;-65
2023/06/19 05:52:58;;;;;;;13.90;12.40;;;;;;;17.83;87.33;100510.27;105001;1260;74030;-64
2023/06/19 05:55:27;;;;;;;14.40;11.90;;;;;;;17.98;87.09;100517.78;105167;1261;69164;-65
2023/06/19 05:57:56;;;;;;;13.60;12.10;;;;;;;18.11;86.56;100522.56;105118;1265;182974;-64
2023/06/19 06:00:24;;;;;;;13.50;11.30;;;;;;;18.23;86.16;100522.33;105289;1264;75202;-65
2023/06/19 06:02:53;;;;;;;12.70;11.40;;;;;;;18.32;85.75;100518.89;105084;1265;83806;-63
2023/06/19 06:05:22;;;;;;;14.00;11.70;;;;;;;18.42;85.37;100518.73;105132;1265;73379;-60
2023/06/19 06:07:51;;;;;;;14.60;10.40;;;;;;;18.53;85.05;100515.14;105091;1265;69094;-60
2023/06/19 06:10:23;;;;;;;12.00;10.50;;;;;;;18.65;84.41;100513.98;105002;1261;69221;-60
2023/06/19 06:12:52;;;;;;;11.30;10.20;;;;;;;18.80;83.99;100515.84;105070;1264;75360;-65
2023/06/19 06:15:21;;;;;;;12.10;10.10;;;;;;;18.91;83.65;100513.41;105136;1261;82507;-64
2023/06/19 06:17:49;;;;;;;11.10;9.80;;;;;;;19.07;83.34;100517.98;105035;1260;72685;-63
2023/06/19 06:20:18;;;;;;;12.50;10.30;;;;;;;19.20;83.05;100517.05;105153;1265;69205;-66
2023/06/19 06:22:46;;;;;;;10.40;9.30;;;;;;;19.37;82.89;100516.35;105031;1264;69213;-65
2023/06/19 06:25:15;;;;;;;10.70;9.70;;;;;;;19.53;82.32;100510.44;104995;1265;74821;-71
2023/06/19 06:27:44;;;;;;;10.70;9.40;;;;;;;19.66;81.85;100512.15;104919;1266;83458;-71
2023/06/19 06:30:13;;;;;;;10.70;9.30;;;;;;;19.79;81.41;100517.05;105054;1265;72868;-67
2023/06/19 06:32:41;;;;;;;11.30;9.90;;;;;;;19.88;80.74;100525.27;105003;1266;69349;-68
2023/06/19 06:35:09;;;;;;;11.60;9.60;;;;;;;19.95;80.47;100528.46;104993;1265;69222;-68
2023/06/19 06:37:38;;;;;;;10.40;9.40;;;;;;;20.07;80.34;100529.92;104979;1265;74984;-69
2023/06/19 06:40:10;;;;;;;11.80;9.70;;;;;;;20.18;80.39;100527.82;104964;1259;82444;-67
2023/06/19 06:42:39;;;;;;;10.00;9.00;;;;;;;20.31;80.23;100527.56;104996;1265;72344;-69
2023/06/19 06:45:09;;;;;;;10.40;9.30;;;;;;;20.40;79.97;100527.42;105051;1265;69228;-67
2023/06/19 06:47:37;;;;;;;10.60;9.50;;;;;;;20.47;79.60;100530.05;105077;1265;69192;-67
2023/06/19 06:50:07;;;;;;;9.90;8.90;;;;;;;20.54;79.21;100533.45;105060;1260;74672;-71
2023/06/19 06:52:35;;;;;;;;;;;;;;;20.61;78.77;100535.30;105011;1264;83688;-70
2023/06/19 06:55:04;;;;;;;9.10;8.10;;;;;;;20.65;78.35;100536.55;104985;1273;73900;-69
2023/06/19 06:57:33;;;;;;;9.50;8.30;;;;;;;20.74;78.26;100540.33;105031;1265;69220;-68
2023/06/19 07:00:03;;;;;;;11.00;8.60;;;;;;;20.81;78.02;100538.84;105029;1266;69080;-70
2023/06/19 07:02:32;;;;;;;9.90;8.50;;;;;;;20.90;78.14;100537.08;105014;1266;75948;-68
2023/06/19 07:05:01;;;;;;;9.90;8.80;;;;;;;20.97;77.97;100539.02;104842;1268;83149;-67
2023/06/19 07:07:29;;;;;;;8.60;7.50;;;;;;;21.04;77.68;100535.66;105107;1264;73945;-62
2023/06/19 07:09:58;;;;;;;11.10;8.10;;;;;;;21.08;77.44;100535.14;104924;1261;69084;-69
2023/06/19 07:12:26;;;;;;;9.90;8.70;;;;;;;21.07;77.33;100530.83;104972;1265;69189;-68
2023/06/19 07:14:54;;;;;;;10.20;8.70;;;;;;;21.06;77.11;100526.57;104963;1266;75806;-71
2023/06/19 07:17:23;;;;;;;10.10;9.10;;;;;;;21.04;77.24;100528.54;104934;1272;82399;-69
2023/06/19 07:19:51;;;;;;;9.00;8.10;;;;;;;21.03;77.15;100531.13;104927;1264;73896;-67
2023/06/19 07:22:19;;;;;;;9.50;8.10;;;;;;;20.99;76.84;100536.06;104933;1265;69218;-66
2023/06/19 07:24:48;;;;;;;9.10;8.20;;;;;;;21.00;77.01;100541.67;104961;1265;69231;-66
2023/06/19 07:27:16;;;;;;;8.40;7.70;;;;;;;21.05;77.00;100537.88;104962;1265;74723;-69
2023/06/19 07:29:44;;;;;;;8.70;7.90;;;;;;;21.13;77.03;100537.36;104937;1264;82334;-67
2023/06/19 07:32:13;;;;;;;8.80;7.50;;;;;;;21.26;76.88;100532.00;104945;1266;72764;-66
2023/06/19 07:34:41;;;;;;;9.50;7.00;;;;;;;21.42;76.84;100534.96;104931;1260;69045;-66
2023/06/19 07:37:10;;;;;;;9.40;7.40;;;;;;;21.61;76.42;100532.88;105010;1265;69214;-69
2023/06/19 07:39:38;;;;;;;7.80;7.00;;;;;;;21.86;76.31;100534.55;104991;1264;75878;-67
2023/06/19 07:42:06;;;;;;;10.70;7.90;;;;;;;22.12;75.93;100532.41;104924;1265;83397;-67
2023/06/19 07:44:35;;;;;;;7.90;7.10;;;;;;;22.32;75.15;100530.77;104962;1264;72982;-68
2023/06/19 07:47:04;;;;;;;8.90;8.00;;;;;;;22.49;74.62;100530.77;104947;1266;69084;-68
2023/06/19 07:49:32;;;;;;;8.90;7.50;;;;;;;22.65;74.21;100528.66;105043;1265;69205;-69
2023/06/19 07:52:00;;;;;;;13.10;7.60;;;;;;;22.78;73.43;100532.93;104937;1265;75059;-67
2023/06/19 07:54:28;;;;;;;11.80;7.20;;;;;;;22.90;73.20;100535.08;104956;1266;83278;-68
2023/06/19 07:56:57;;;;;;;8.50;7.60;;;;;;;23.00;72.69;100535.17;104956;1261;72733;-66
2023/06/19 07:59:26;;;;;;;9.30;7.50;;;;;;;23.04;72.11;100539.98;104987;1266;69525;-67
2023/06/19 08:01:54;;;;;;;9.50;7.70;;;;;;;23.06;71.91;100540.73;105005;1260;69131;-71
2023/06/19 08:04:23;;;;;;;8.50;7.50;;;;;;;23.08;71.66;100535.19;104981;1266;75563;-67
2023/06/19 08:06:51;;;;;;;7.50;6.90;;;;;;;23.11;71.69;100532.08;105016;1261;83505;-68
2023/06/19 08:09:20;;;;;;;7.90;7.10;;;;;;;23.19;71.56;100529.91;104936;1266;72470;-69
2023/06/19 08:11:48;;;;;;;7.90;7.00;;;;;;;23.28;71.13;100528.73;104960;1266;69244;-68
2023/06/19 08:14:16;;;;;;;10.30;6.60;;;;;;;23.40;70.78;100525.70;104954;1265;69284;-66
2023/06/19 08:16:45;;;;;;;7.30;6.60;;;;;;;23.56;70.39;100523.94;105008;1266;75436;-65
2023/06/19 08:19:13;;;;;;;7.90;7.10;;;;;;;23.72;69.84;100520.39;105062;1265;83304;-68
2023/06/19 08:21:41;;;;;;;9.90;6.80;;;;;;;23.88;69.39;100515.90;104945;1265;73916;-71
2023/06/19 08:24:10;;;;;;;7.20;6.50;;;;;;;23.99;68.84;100514.89;104935;1264;69136;-66
2023/06/19 08:26:38;;;;;;;7.10;6.50;;;;;;;24.10;68.57;100514.67;104993;1264;69152;-68
2023/06/19 08:29:07;;;;;;;7.00;6.40;;;;;;;24.18;67.95;100513.00;104968;1261;75828;-67
2023/06/19 08:31:35;;;;;;;7.60;6.10;;;;;;;24.23;67.57;100512.18;105014;1264;83511;-68
2023/06/19 08:34:07;;;;;;;7.10;6.40;;;;;;;24.32;67.19;100514.23;104954;1266;72824;-65
2023/06/19 08:36:36;;;;;;;8.00;6.50;;;;;;;24.43;66.98;100509.60;104943;1266;69232;-68
2023/06/19 08:39:05;;;;;;;7.90;6.80;;;;;;;24.50;66.53;100505.95;104960;1260;69097;-67
2023/06/19 08:41:33;;;;;;;6.50;5.90;;;;;;;24.59;66.72;100506.21;105024;1265;74744;-67
2023/06/19 08:44:03;;;;;;;7.00;6.30;;;;;;;24.75;66.20;100502.15;105031;1270;82658;-68
2023/06/19 08:46:31;;;;;;;6.70;6.10;;;;;;;24.92;65.68;100501.02;104995;1261;72836;-68
2023/06/19 08:49:00;;;;;;;6.80;5.70;;;;;;;25.09;64.83;100494.20;104945;1262;69164;-67
2023/06/19 08:51:30;;;;;;;6.90;6.20;;;;;;;25.24;64.26;100494.38;105102;1273;69196;-66
2023/06/19 08:54:05;;;;;;;6.40;5.70;;;;;;;25.36;63.83;100493.45;104902;1266;75530;-66
2023/06/19 08:56:34;;;;;;;9.00;5.90;;;;;;;25.51;63.29;100493.04;105030;1261;82711;-71
2023/06/19 08:59:13;;;;;;;;;;;;;;;25.65;62.89;100492.55;105037;1264;73764;-68
2023/06/19 09:01:51;;;;;;;6.40;5.90;;;;;;;25.77;61.15;100494.05;105014;1261;69197;-67
2023/06/19 09:04:27;;;;;;;6.50;5.80;;;;;;;25.84;60.75;100493.16;105011;1267;69166;-67
2023/06/19 09:06:56;;;;;;;5.80;5.10;;;;;;;25.88;60.21;100492.06;105084;1264;74356;-69
2023/06/19 09:09:26;;;;;;;8.50;5.70;;;;;;;25.97;59.82;100493.48;104961;1266;83454;-68
2023/06/19 09:12:04;;;;;;;6.60;5.40;;;;;;;26.12;59.22;100492.20;104988;1264;73961;-68
2023/06/19 09:14:38;;;;;;;6.70;6.10;;;;;;;26.29;59.09;100490.08;104830;1261;69598;-67
2023/06/19 09:17:10;;;;;;;6.70;5.90;;;;;;;26.44;58.58;100488.64;105007;1265;69197;-70
2023/06/19 09:19:50;;;;;;;6.30;5.70;;;;;;;26.59;57.65;100488.87;104992;1266;74799;-66
2023/06/19 09:22:20;;;;;;;;;;;;;;;26.83;56.83;100486.30;105032;1266;83814;-67
2023/06/19 09:24:50;;;;;;;6.80;5.90;;;;;;;27.08;56.02;100482.59;104997;1261;72247;-68
2023/06/19 09:27:19;;;;;;;6.70;6.20;;;;;;;27.28;55.64;100483.09;105047;1261;69234;-67
2023/06/19 09:29:49;;;;;;;7.10;5.30;;;;;;;27.42;54.49;100481.59;105032;1264;69218;-68
2023/06/19 09:32:26;;;;;;;5.60;5.10;;;;;;;27.53;54.06;100483.09;105027;1264;75508;-68
2023/06/19 09:34:58;;;;;;;5.70;5.20;;;;;;;27.61;53.23;100480.41;104920;1265;83535;-68
2023/06/19 09:37:28;;;;;;;4.90;4.50;;;;;;;27.66;52.39;100474.13;104988;1264;74010;-66
2023/06/19 09:39:59;;;;;;;6.50;4.80;;;;;;;27.78;52.11;100472.07;104959;1261;69189;-69
2023/06/19 09:42:28;;;;;;;5.50;4.70;;;;;;;27.94;50.92;100471.48;105009;1261;69213;-73
2023/06/19 09:45:04;;;;;;;5.50;5.10;;;;;;;28.09;50.08;100467.81;105044;1261;74670;-70
2023/06/19 09:47:38;;;;;;;5.10;4.60;;;;;;;28.38;49.83;100468.84;104997;1260;83252;-66
2023/06/19 09:50:07;;;;;;;5.10;4.40;;;;;;;28.62;49.00;100469.76;104968;1265;74304;-66
2023/06/19 09:52:35;;;;;;;6.00;4.70;;;;;;;28.83;48.71;100465.17;104924;1264;69176;-67
2023/06/19 09:55:09;;;;;;;6.20;4.50;;;;;;;29.07;47.91;100465.50;105022;1264;69152;-69
2023/06/19 09:57:38;;;;;;;5.40;4.90;;;;;;;29.29;47.18;100463.25;105052;1264;75383;-72
2023/06/19 10:02:44;;;;;;;6.50;5.30;;;;;;;29.38;46.24;100467.59;104956;1260;73865;-69
2023/06/19 10:05:14;;;;;;;6.10;5.10;;;;;;;29.41;45.67;100469.35;104937;1272;69344;-68
2023/06/19 10:07:46;;;;;;;6.10;5.50;;;;;;;29.45;45.28;100470.04;104971;1261;69103;-67
2023/06/19 10:10:26;;;;;;;7.30;4.70;;;;;;;29.40;45.53;100473.52;104996;1260;75835;-66
2023/06/19 10:12:58;;;;;;;5.40;4.20;;;;;;;29.46;44.41;100475.67;104949;1264;83326;-67
2023/06/19 10:15:29;;;;;;;5.50;4.70;;;;;;;29.45;44.10;100475.86;104987;1264;74191;-68
2023/06/19 10:18:04;;;;;;;5.00;4.60;;;;;;;29.46;43.94;100475.02;104966;1264;69242;-68
2023/06/19 10:20:37;;;;;;;8.00;4.60;;;;;;;29.43;43.83;100472.45;105032;1264;69232;-71
2023/06/19 10:23:18;;;;;;;5.20;4.70;;;;;;;29.41;43.96;100471.89;104999;1264;75358;-70
2023/06/19 10:25:54;;;;;;;5.40;4.20;;;;;;;29.40;44.21;100470.24;105047;1264;83333;-68
2023/06/19 10:28:23;;;;;;;4.90;4.40;;;;;;;29.40;44.23;100469.99;104950;1266;72709;-70
2023/06/19 10:30:59;;;;;;;5.60;4.60;;;;;;;29.39;44.12;100464.04;105036;1261;69233;-68
2023/06/19 10:33:32;;;;;;;4.90;4.20;;;;;;;29.33;44.02;100464.67;104995;1261;69151;-69
2023/06/19 10:36:13;;;;;;;5.20;4.70;;;;;;;29.31;43.70;100468.16;104991;1261;75703;-68
2023/06/19 10:38:47;;;;;;;5.00;4.40;;;;;;;29.37;43.68;100465.33;105024;1261;81784;-69
2023/06/19 10:41:19;;;;;;;4.60;4.20;;;;;;;29.45;43.54;100465.08;104954;1261;73403;-72
2023/06/19 10:43:59;;;;;;;5.00;4.50;;;;;;;29.61;43.43;100463.67;104995;1261;69220;-70
2023/06/19 10:46:30;;;;;;;4.50;4.10;;;;;;;29.96;43.00;100463.36;104869;1261;69235;-67
2023/06/19 10:49:04;;;;;;;5.00;4.10;;;;;;;30.40;42.79;100455.73;104826;1264;76305;-69
2023/06/19 10:51:37;;;;;;;4.40;4.00;;;;;;;30.95;42.90;100453.25;104937;1264;83294;-70
2023/06/19 10:54:06;;;;;;;8.00;4.10;;;;;;;31.40;42.31;100449.10;105077;1260;72838;-69
2023/06/19 10:56:35;;;;;;;7.40;4.00;;;;;;;31.77;41.38;100448.70;104992;1264;69208;-71
2023/06/19 10:59:09;;;;;;;4.20;3.90;;;;;;;31.79;40.61;100447.46;105013;1264;69227;-72
2023/06/19 11:01:39;;;;;;;4.30;3.90;;;;;;;31.99;40.57;100444.27;105080;1264;75796;-72
2023/06/19 11:04:12;;;;;;;4.30;3.70;;;;;;;32.28;40.01;100445.23;105022;1260;83514;-68
2023/06/19 11:06:43;;;;;;;3.90;3.50;;;;;;;32.21;38.51;100444.39;104963;1260;73259;-71
2023/06/19 11:09:12;;;;;;;4.80;3.40;;;;;;;32.02;37.85;100441.33;104924;1261;69085;-71
2023/06/19 11:11:42;;;;;;;5.10;3.80;;;;;;;31.84;37.65;100440.30;104820;1260;69226;-69
2023/06/19 11:14:12;;;;;;;5.60;3.80;;;;;;;31.69;37.16;100438.49;104780;1261;76786;-70
2023/06/19 11:16:45;;;;;;;3.60;3.30;;;;;;;31.52;36.81;100436.66;104972;1264;83053;-69
2023/06/19 11:19:17;;;;;;;4.00;3.60;;;;;;;31.38;36.83;100437.52;104955;1272;73619;-67
2023/06/19 11:21:47;;;;;;;4.00;3.60;;;;;;;31.28;36.93;100439.70;104963;1264;69219;-67
2023/06/19 11:24:16;;;;;;;4.10;3.70;;;;;;;31.33;37.14;100438.77;105011;1264;69217;-68
2023/06/19 11:26:50;;;;;;;4.40;4.00;;;;;;;31.40;37.29;100435.08;104992;1264;75894;-72